createdAt,value
2023-05-20T00:01:28.028Z,13.14
2023-05-20T00:03:30.797Z,13.15
2023-05-20T00:05:33.500Z,13.15
2023-05-20T00:07:36.067Z,13.14
2023-05-20T00:09:40.837Z,13.14
2023-05-20T00:11:43.482Z,13.14
2023-05-20T00:13:48.306Z,13.14
2023-05-20T00:15:50.861Z,13.13
2023-05-20T00:17:53.521Z,13.13
2023-05-20T00:19:56.258Z,13.12
2023-05-20T00:21:59.038Z,13.11
2023-05-20T00:24:01.688Z,13.04
2023-05-20T00:26:05.791Z,13.04
2023-05-20T00:28:08.380Z,13.05
2023-05-20T00:30:12.058Z,13.04
2023-05-20T00:32:14.974Z,13.04
2023-05-20T00:34:17.590Z,13.06
2023-05-20T00:36:20.665Z,13.07
2023-05-20T00:38:23.353Z,13.08
2023-05-20T00:40:26.016Z,13.08
2023-05-20T00:42:30.308Z,13.08
2023-05-20T00:44:33.366Z,13.08
2023-05-20T00:46:36.857Z,13.08
2023-05-20T00:48:43.405Z,13.07
2023-05-20T00:50:46.082Z,12.97
2023-05-20T00:52:51.669Z,12.89
2023-05-20T00:54:54.257Z,12.87
2023-05-20T00:56:57.795Z,12.87
2023-05-20T00:59:01.872Z,12.86
2023-05-20T01:01:04.644Z,12.87
2023-05-20T01:03:07.441Z,12.89
2023-05-20T01:05:10.500Z,12.91
2023-05-20T01:07:14.767Z,12.92
2023-05-20T01:09:17.410Z,12.94
2023-05-20T01:11:27.366Z,12.96
2023-05-20T01:13:36.938Z,12.99
2023-05-20T01:15:43.133Z,12.99
2023-05-20T01:17:48.013Z,12.97
2023-05-20T01:19:51.474Z,12.97
2023-05-20T01:21:55.111Z,12.91
2023-05-20T01:23:59.080Z,12.88
2023-05-20T01:26:01.636Z,12.87
2023-05-20T01:28:05.042Z,12.87
2023-05-20T01:30:09.043Z,12.88
2023-05-20T01:32:16.296Z,12.90
2023-05-20T01:34:19.456Z,12.93
2023-05-20T01:36:22.637Z,12.92
2023-05-20T01:38:26.290Z,12.95
2023-05-20T01:40:32.551Z,12.92
2023-05-20T01:42:36.386Z,12.93
2023-05-20T01:44:39.323Z,12.95
2023-05-20T01:46:41.969Z,12.96
2023-05-20T01:48:44.653Z,12.94
2023-05-20T01:50:47.266Z,12.93
2023-05-20T01:52:50.026Z,12.92
2023-05-20T01:54:52.609Z,12.92
2023-05-20T01:56:57.029Z,12.92
2023-05-20T01:58:59.692Z,12.89
2023-05-20T02:01:02.688Z,12.87
2023-05-20T02:03:05.442Z,12.89
2023-05-20T02:05:08.729Z,12.88
2023-05-20T02:07:11.278Z,12.85
2023-05-20T02:09:14.129Z,12.84
2023-05-20T02:11:16.720Z,12.83
2023-05-20T02:13:20.774Z,12.86
2023-05-20T02:15:23.421Z,12.84
2023-05-20T02:17:27.385Z,12.84
2023-05-20T02:19:30.154Z,12.84
2023-05-20T02:21:32.835Z,12.81
2023-05-20T02:23:35.817Z,12.82
2023-05-20T02:25:38.407Z,12.82
2023-05-20T02:27:41.060Z,12.82
2023-05-20T02:29:45.632Z,12.81
2023-05-20T02:31:48.966Z,12.77
2023-05-20T02:33:51.584Z,12.75
2023-05-20T02:35:54.177Z,12.76
2023-05-20T02:37:56.828Z,12.74
2023-05-20T02:39:59.455Z,12.73
2023-05-20T02:42:02.052Z,12.74
2023-05-20T02:44:04.665Z,12.73
2023-05-20T02:46:08.648Z,12.72
2023-05-20T02:48:11.271Z,12.69
2023-05-20T02:50:13.898Z,12.67
2023-05-20T02:52:16.815Z,12.66
2023-05-20T02:54:19.406Z,12.63
2023-05-20T02:56:22.029Z,12.63
2023-05-20T02:58:26.406Z,12.59
2023-05-20T03:00:31.273Z,12.57
2023-05-20T03:02:35.366Z,12.53
2023-05-20T03:04:39.087Z,12.50
2023-05-20T03:06:44.321Z,12.48
2023-05-20T03:08:46.967Z,12.46
2023-05-20T03:10:50.007Z,12.46
2023-05-20T03:12:52.603Z,12.45
2023-05-20T03:14:55.432Z,12.44
2023-05-20T03:16:58.071Z,12.44
2023-05-20T03:19:02.251Z,12.44
2023-05-20T03:21:05.190Z,12.41
2023-05-20T03:23:08.324Z,12.37
2023-05-20T03:25:11.189Z,12.36
2023-05-20T03:27:13.786Z,12.34
2023-05-20T03:29:19.024Z,12.34
2023-05-20T03:31:21.676Z,12.36
2023-05-20T03:33:26.274Z,12.35
2023-05-20T03:35:30.452Z,12.35
2023-05-20T03:37:33.230Z,12.33
2023-05-20T03:39:35.835Z,12.35
2023-05-20T03:41:38.908Z,12.35
2023-05-20T03:43:41.540Z,12.32
2023-05-20T03:45:44.223Z,12.33
2023-05-20T03:47:46.844Z,12.34
2023-05-20T03:49:49.491Z,12.33
2023-05-20T03:51:53.386Z,12.35
2023-05-20T03:53:55.976Z,12.35
2023-05-20T03:55:58.606Z,12.37
2023-05-20T03:58:01.793Z,12.38
2023-05-20T04:00:09.938Z,12.40
2023-05-20T04:02:12.660Z,12.42
2023-05-20T04:04:15.673Z,12.46
2023-05-20T04:06:18.441Z,12.46
2023-05-20T04:08:25.858Z,12.47
2023-05-20T04:10:28.513Z,12.46
2023-05-20T04:12:32.386Z,12.47
2023-05-20T04:14:35.816Z,12.47
2023-05-20T04:16:38.877Z,12.49
2023-05-20T04:18:41.567Z,12.50
2023-05-20T04:20:44.721Z,12.51
2023-05-20T04:22:48.206Z,12.52
2023-05-20T04:24:52.244Z,12.51
2023-05-20T04:26:54.899Z,12.52
2023-05-20T04:28:59.004Z,12.54
2023-05-20T04:31:02.766Z,12.55
2023-05-20T04:33:06.270Z,12.56
2023-05-20T04:35:12.068Z,12.56
2023-05-20T04:37:15.503Z,12.58
2023-05-20T04:39:19.007Z,12.58
2023-05-20T04:41:23.978Z,12.60
2023-05-20T04:43:29.839Z,12.60
2023-05-20T04:45:33.851Z,12.58
2023-05-20T04:47:38.826Z,12.60
2023-05-20T04:49:42.249Z,12.60
2023-05-20T04:51:44.997Z,12.60
2023-05-20T04:53:47.571Z,12.64
2023-05-20T04:55:53.858Z,12.66
2023-05-20T04:57:57.807Z,12.66
2023-05-20T05:00:00.552Z,12.66
2023-05-20T05:02:03.133Z,12.66
2023-05-20T05:04:06.178Z,12.67
2023-05-20T05:06:08.788Z,12.68
2023-05-20T05:08:12.524Z,12.67
2023-05-20T05:10:15.725Z,12.70
2023-05-20T05:12:18.349Z,12.70
2023-05-20T05:14:22.317Z,12.73
2023-05-20T05:16:24.989Z,12.74
2023-05-20T05:18:27.766Z,12.75
2023-05-20T05:20:30.379Z,12.78
2023-05-20T05:22:35.414Z,12.78
2023-05-20T05:24:38.021Z,12.79
2023-05-20T05:26:40.618Z,12.80
2023-05-20T05:28:43.957Z,12.81
2023-05-20T05:30:47.912Z,12.82
2023-05-20T05:32:50.619Z,12.83
2023-05-20T05:34:53.293Z,12.84
2023-05-20T05:36:55.892Z,12.84
2023-05-20T05:38:58.478Z,12.86
2023-05-20T05:41:01.045Z,12.87
2023-05-20T05:43:03.753Z,12.88
2023-05-20T05:45:07.224Z,12.87
2023-05-20T05:47:11.556Z,12.85
2023-05-20T05:49:14.250Z,12.86
2023-05-20T05:51:16.905Z,12.87
2023-05-20T05:53:19.505Z,12.89
2023-05-20T05:55:23.764Z,12.90
2023-05-20T05:57:26.305Z,12.91
2023-05-20T05:59:28.916Z,12.94
2023-05-20T06:01:31.563Z,12.96
2023-05-20T06:03:37.329Z,12.97
2023-05-20T06:05:40.020Z,13.01
2023-05-20T06:07:42.736Z,13.02
2023-05-20T06:09:45.792Z,13.03
2023-05-20T06:11:48.365Z,13.08
2023-05-20T06:13:51.154Z,13.08
2023-05-20T06:15:54.166Z,13.10
2023-05-20T06:17:56.832Z,13.12
2023-05-20T06:20:00.870Z,13.15
2023-05-20T06:22:03.540Z,13.17
2023-05-20T06:24:06.980Z,13.19
2023-05-20T06:26:09.649Z,13.20
2023-05-20T06:28:12.701Z,13.22
2023-05-20T06:30:15.506Z,13.24
2023-05-20T06:32:18.115Z,13.25
2023-05-20T06:34:20.852Z,13.28
2023-05-20T06:36:24.793Z,13.31
2023-05-20T06:38:27.396Z,13.34
2023-05-20T06:40:30.121Z,13.35
2023-05-20T06:42:32.721Z,13.39
2023-05-20T06:44:35.314Z,13.42
2023-05-20T06:46:37.971Z,13.45
2023-05-20T06:48:40.751Z,13.47
2023-05-20T06:50:43.349Z,13.49
2023-05-20T06:52:47.277Z,13.52
2023-05-20T06:54:49.843Z,13.54
2023-05-20T06:56:52.421Z,13.54
2023-05-20T06:58:55.884Z,13.56
2023-05-20T07:00:58.444Z,13.59
2023-05-20T07:03:01.092Z,13.59
2023-05-20T07:05:03.747Z,13.56
2023-05-20T07:07:06.727Z,13.59
2023-05-20T07:09:13.081Z,13.59
2023-05-20T07:11:15.800Z,13.61
2023-05-20T07:13:19.424Z,13.64
2023-05-20T07:15:22.048Z,13.62
2023-05-20T07:17:25.083Z,13.66
2023-05-20T07:19:27.810Z,13.68
2023-05-20T07:21:30.874Z,13.71
2023-05-20T07:23:33.510Z,13.75
2023-05-20T07:25:37.455Z,13.77
2023-05-20T07:27:40.049Z,13.79
2023-05-20T07:29:42.706Z,13.80
2023-05-20T07:31:45.327Z,13.84
2023-05-20T07:33:47.927Z,13.86
2023-05-20T07:35:50.592Z,13.88
2023-05-20T07:37:53.207Z,13.91
2023-05-20T07:39:56.074Z,13.95
2023-05-20T07:42:00.099Z,13.97
2023-05-20T07:44:03.796Z,14.01
2023-05-20T07:46:06.702Z,14.02
2023-05-20T07:48:10.862Z,14.05
2023-05-20T07:50:13.562Z,14.05
2023-05-20T07:52:16.181Z,14.03
2023-05-20T07:54:18.818Z,14.08
2023-05-20T07:56:21.657Z,14.08
2023-05-20T07:58:25.642Z,14.12
2023-05-20T08:00:28.269Z,14.13
2023-05-20T08:02:30.937Z,14.15
2023-05-20T08:04:33.747Z,14.21
2023-05-20T08:06:36.853Z,14.23
2023-05-20T08:08:40.450Z,14.26
2023-05-20T08:10:43.051Z,14.29
2023-05-20T08:12:46.105Z,14.31
2023-05-20T08:14:50.049Z,14.35
2023-05-20T08:16:54.839Z,14.30
2023-05-20T08:18:57.830Z,14.35
2023-05-20T08:21:00.934Z,14.38
2023-05-20T08:23:03.542Z,14.39
2023-05-20T08:25:10.016Z,14.40
2023-05-20T08:27:12.634Z,14.44
2023-05-20T08:29:15.219Z,14.47
2023-05-20T08:31:19.253Z,14.48
2023-05-20T08:33:22.618Z,14.50
2023-05-20T08:35:25.415Z,14.51
2023-05-20T08:37:28.122Z,14.57
2023-05-20T08:39:30.711Z,14.60
2023-05-20T08:41:33.347Z,14.63
2023-05-20T08:43:36.512Z,14.67
2023-05-20T08:45:40.066Z,14.69
2023-05-20T08:47:44.736Z,14.72
2023-05-20T08:49:47.387Z,14.73
2023-05-20T08:51:50.026Z,14.75
2023-05-20T08:53:53.059Z,14.77
2023-05-20T08:56:01.007Z,14.79
2023-05-20T08:58:04.609Z,14.82
2023-05-20T09:00:13.400Z,14.82
2023-05-20T09:02:16.403Z,14.87
2023-05-20T09:04:20.403Z,14.87
2023-05-20T09:06:24.039Z,14.86
2023-05-20T09:08:27.254Z,14.95
2023-05-20T09:10:29.940Z,14.98
2023-05-20T09:12:34.219Z,15.01
2023-05-20T09:14:36.856Z,15.02
2023-05-20T09:16:41.115Z,15.01
2023-05-20T09:18:43.926Z,15.06
2023-05-20T09:20:52.867Z,15.10
2023-05-20T09:22:55.667Z,15.12
2023-05-20T09:24:58.533Z,15.16
2023-05-20T09:27:01.300Z,15.18
2023-05-20T09:29:03.881Z,15.27
2023-05-20T09:31:06.750Z,15.31
2023-05-20T09:33:09.509Z,15.36
2023-05-20T09:35:14.436Z,15.43
2023-05-20T09:37:20.283Z,15.44
2023-05-20T09:39:26.917Z,15.50
2023-05-20T09:41:35.425Z,15.58
2023-05-20T09:43:39.105Z,15.68
2023-05-20T09:45:42.775Z,15.72
2023-05-20T09:47:47.605Z,15.74
2023-05-20T09:49:52.584Z,15.77
2023-05-20T09:51:57.152Z,15.81
2023-05-20T09:54:03.610Z,15.84
2023-05-20T09:56:06.853Z,15.86
2023-05-20T09:58:13.686Z,15.87
2023-05-20T10:00:18.539Z,15.86
2023-05-20T10:02:21.673Z,15.87
2023-05-20T10:04:26.628Z,15.90
2023-05-20T10:07:11.793Z,15.92
2023-05-20T10:09:33.548Z,15.92
2023-05-20T10:11:42.154Z,15.93
2023-05-20T10:14:04.956Z,16.01
2023-05-20T10:16:18.979Z,16.06
2023-05-20T10:18:33.725Z,16.09
2023-05-20T10:20:46.609Z,16.11
2023-05-20T10:22:57.544Z,16.16
2023-05-20T10:25:06.691Z,16.19
2023-05-20T10:27:11.061Z,16.21
2023-05-20T10:29:17.474Z,16.23
2023-05-20T10:31:23.642Z,16.27
2023-05-20T10:33:27.490Z,16.31
2023-05-20T10:35:30.187Z,16.35
2023-05-20T10:37:34.444Z,16.39
2023-05-20T10:39:37.031Z,16.45
2023-05-20T10:41:41.080Z,16.45
2023-05-20T10:43:44.831Z,16.52
2023-05-20T10:45:52.426Z,16.53
2023-05-20T10:47:56.821Z,16.58
2023-05-20T10:50:01.583Z,16.64
2023-05-20T10:52:04.806Z,16.64
2023-05-20T10:54:11.510Z,16.69
2023-05-20T10:56:18.408Z,16.71
2023-05-20T10:58:23.004Z,16.74
2023-05-20T11:00:26.182Z,16.75
2023-05-20T11:02:29.670Z,16.78
2023-05-20T11:04:33.489Z,16.80
2023-05-20T11:06:36.067Z,16.85
2023-05-20T11:08:38.712Z,16.88
2023-05-20T11:10:43.360Z,16.94
2023-05-20T11:12:46.158Z,17.02
2023-05-20T11:14:51.544Z,17.04
2023-05-20T11:16:57.100Z,17.15
2023-05-20T11:18:59.814Z,17.22
2023-05-20T11:21:03.442Z,17.25
2023-05-20T11:23:07.419Z,17.35
2023-05-20T11:25:10.996Z,17.38
2023-05-20T11:27:13.640Z,17.40
2023-05-20T11:29:16.498Z,17.42
2023-05-20T11:31:20.574Z,17.48
2023-05-20T11:33:27.215Z,17.56
2023-05-20T11:35:32.298Z,17.58
2023-05-20T11:37:37.261Z,17.58
2023-05-20T11:39:40.328Z,17.60
2023-05-20T11:41:44.065Z,17.63
2023-05-20T11:43:46.862Z,17.63
2023-05-20T11:45:54.622Z,17.61
2023-05-20T11:48:02.850Z,17.58
2023-05-20T11:50:06.104Z,17.56
2023-05-20T11:52:11.395Z,17.57
2023-05-20T11:54:13.995Z,17.57
2023-05-20T11:56:16.590Z,17.57
2023-05-20T11:58:20.829Z,17.64
2023-05-20T12:00:24.996Z,17.71
2023-05-20T12:02:28.236Z,17.74
2023-05-20T12:04:32.282Z,17.83
2023-05-20T12:06:35.029Z,17.85
2023-05-20T12:08:37.675Z,17.88
2023-05-20T12:10:40.273Z,17.90
2023-05-20T12:12:43.981Z,17.92
2023-05-20T12:14:46.599Z,17.90
2023-05-20T12:16:49.202Z,17.91
2023-05-20T12:18:51.861Z,17.94
2023-05-20T12:20:55.992Z,17.99
2023-05-20T12:22:59.844Z,18.07
2023-05-20T12:25:02.464Z,18.20
2023-05-20T12:27:06.395Z,18.31
2023-05-20T12:29:09.017Z,18.43
2023-05-20T12:31:11.648Z,18.55
2023-05-20T12:33:14.292Z,18.59
2023-05-20T12:35:17.067Z,18.68
2023-05-20T12:37:21.132Z,18.72
2023-05-20T12:39:23.775Z,18.73
2023-05-20T12:41:26.406Z,18.80
2023-05-20T12:43:29.235Z,18.88
2023-05-20T12:45:32.215Z,18.97
2023-05-20T12:47:35.699Z,19.02
2023-05-20T12:49:38.314Z,19.08
2023-05-20T12:51:41.249Z,19.12
2023-05-20T12:53:45.471Z,19.14
2023-05-20T12:55:48.109Z,19.15
2023-05-20T12:57:51.098Z,19.15
2023-05-20T12:59:53.708Z,19.13
2023-05-20T13:01:56.719Z,19.17
2023-05-20T13:03:59.393Z,19.18
2023-05-20T13:06:02.068Z,19.19
2023-05-20T13:08:04.839Z,19.18
2023-05-20T13:10:10.462Z,19.12
2023-05-20T13:12:13.202Z,19.09
2023-05-20T13:14:17.449Z,19.07
2023-05-20T13:16:20.316Z,19.02
2023-05-20T13:18:22.940Z,19.01
2023-05-20T13:20:25.805Z,18.98
2023-05-20T13:22:28.448Z,19.03
2023-05-20T13:24:31.167Z,19.16
2023-05-20T13:26:35.109Z,19.43
2023-05-20T13:28:37.745Z,19.65
2023-05-20T13:30:40.402Z,19.80
2023-05-20T13:32:43.092Z,19.98
2023-05-20T13:34:45.896Z,20.11
2023-05-20T13:36:48.799Z,20.24
2023-05-20T13:38:51.491Z,20.39
2023-05-20T13:40:54.085Z,20.49
2023-05-20T13:42:58.093Z,20.56
2023-05-20T13:45:00.814Z,20.61
2023-05-20T13:47:03.466Z,20.83
2023-05-20T13:49:06.408Z,21.09
2023-05-20T13:51:09.111Z,21.36
2023-05-20T13:53:13.722Z,21.54
2023-05-20T13:55:16.769Z,21.71
2023-05-20T13:57:19.654Z,21.75
2023-05-20T13:59:23.598Z,21.99
2023-05-20T14:01:26.201Z,22.18
2023-05-20T14:03:28.856Z,22.35
2023-05-20T14:05:32.490Z,22.54
2023-05-20T14:07:35.093Z,22.68
2023-05-20T14:09:37.992Z,22.71
2023-05-20T14:11:40.706Z,22.65
2023-05-20T14:13:44.439Z,22.51
2023-05-20T14:15:49.176Z,22.33
2023-05-20T14:17:51.828Z,22.10
2023-05-20T14:19:54.445Z,22.05
2023-05-20T14:21:58.853Z,21.94
2023-05-20T14:24:01.964Z,21.84
2023-05-20T14:26:04.638Z,21.79
2023-05-20T14:28:07.437Z,21.75
2023-05-20T14:30:11.217Z,21.72
2023-05-20T14:32:15.250Z,21.73
2023-05-20T14:34:17.949Z,21.75
2023-05-20T14:36:20.611Z,21.77
2023-05-20T14:38:23.488Z,21.79
2023-05-20T14:40:26.112Z,21.79
2023-05-20T14:42:28.748Z,21.80
2023-05-20T14:44:31.542Z,21.82
2023-05-20T14:46:34.389Z,21.98
2023-05-20T14:48:38.393Z,22.15
2023-05-20T14:50:40.959Z,22.25
2023-05-20T14:52:43.649Z,22.31
